sensor_id;sensor_type;location;lat;lon;timestamp;pressure;altitude;pressure_sealevel;temperature;humidity
79752;BME280;69234;47.446;21.636;2024-02-26T00:00:13;99923.69;;;7.70;100.00
79752;BME280;69234;47.446;21.636;2024-02-26T00:00:44;99929.88;;;7.70;100.00
79752;BME280;69234;47.446;21.636;2024-02-26T00:01:17;99931.56;;;7.71;100.00
79752;BME280;69234;47.446;21.636;2024-02-26T00:01:47;99924.53;;;7.70;100.00
79752;BME280;69234;47.446;21.636;2024-02-26T00:02:18;99928.66;;;7.74;100.00
79752;BME280;69234;47.446;21.636;2024-02-26T00:02:49;99926.97;;;7.73;100.00
79752;BME280;69234;47.446;21.636;2024-02-26T00:03:20;99919.88;;;7.72;100.00
79752;BME280;69234;47.446;21.636;2024-02-26T00:03:51;99921.84;;;7.70;100.00
79752;BME280;69234;47.446;21.636;2024-02-26T00:04:23;99923.78;;;7.68;100.00
79752;BME280;69234;47.446;21.636;2024-02-26T00:04:54;99919.28;;;7.69;100.00
79752;BME280;69234;47.446;21.636;2024-02-26T00:05:24;99919.44;;;7.67;100.00
79752;BME280;69234;47.446;21.636;2024-02-26T00:05:55;99919.56;;;7.66;100.00
79752;BME280;69234;47.446;21.636;2024-02-26T00:06:27;99919.44;;;7.67;100.00
79752;BME280;69234;47.446;21.636;2024-02-26T00:06:58;99921.00;;;7.70;100.00
79752;BME280;69234;47.446;21.636;2024-02-26T00:07:29;99914.94;;;7.68;100.00
79752;BME280;69234;47.446;21.636;2024-02-26T00:07:59;99914.69;;;7.71;100.00
79752;BME280;69234;47.446;21.636;2024-02-26T00:08:30;99924.03;;;7.76;100.00
79752;BME280;69234;47.446;21.636;2024-02-26T00:09:01;99917.81;;;7.76;100.00
79752;BME280;69234;47.446;21.636;2024-02-26T00:09:34;99918.56;;;7.78;100.00
79752;BME280;69234;47.446;21.636;2024-02-26T00:10:08;99923.78;;;7.79;100.00
79752;BME280;69234;47.446;21.636;2024-02-26T00:10:39;99925.34;;;7.82;100.00
79752;BME280;69234;47.446;21.636;2024-02-26T00:11:10;99917.22;;;7.83;100.00
79752;BME280;69234;47.446;21.636;2024-02-26T00:11:41;99919.91;;;7.83;100.00
79752;BME280;69234;47.446;21.636;2024-02-26T00:12:12;99915.50;;;7.82;100.00
79752;BME280;69234;47.446;21.636;2024-02-26T00:12:43;99920.84;;;7.82;100.00
79752;BME280;69234;47.446;21.636;2024-02-26T00:13:14;99917.94;;;7.85;100.00
79752;BME280;69234;47.446;21.636;2024-02-26T00:13:45;99906.38;;;7.85;100.00
79752;BME280;69234;47.446;21.636;2024-02-26T00:14:16;99907.97;;;7.88;100.00
79752;BME280;69234;47.446;21.636;2024-02-26T00:14:46;99907.22;;;7.85;100.00
79752;BME280;69234;47.446;21.636;2024-02-26T00:15:20;99912.34;;;7.89;100.00
79752;BME280;69234;47.446;21.636;2024-02-26T00:15:51;99907.13;;;7.87;100.00
79752;BME280;69234;47.446;21.636;2024-02-26T00:16:21;99917.69;;;7.89;100.00
79752;BME280;69234;47.446;21.636;2024-02-26T00:16:52;99914.16;;;7.88;100.00
79752;BME280;69234;47.446;21.636;2024-02-26T00:17:24;99917.44;;;7.92;100.00
79752;BME280;69234;47.446;21.636;2024-02-26T00:17:55;99926.19;;;7.94;100.00
79752;BME280;69234;47.446;21.636;2024-02-26T00:18:26;99923.38;;;7.95;100.00
79752;BME280;69234;47.446;21.636;2024-02-26T00:18:57;99915.50;;;7.94;100.00
79752;BME280;69234;47.446;21.636;2024-02-26T00:19:28;99918.88;;;7.96;100.00
79752;BME280;69234;47.446;21.636;2024-02-26T00:19:59;99912.69;;;7.95;100.00
79752;BME280;69234;47.446;21.636;2024-02-26T00:20:31;99915.25;;;7.97;100.00
79752;BME280;69234;47.446;21.636;2024-02-26T00:21:03;99916.94;;;7.98;100.00
79752;BME280;69234;47.446;21.636;2024-02-26T00:21:34;99917.66;;;8.00;100.00
79752;BME280;69234;47.446;21.636;2024-02-26T00:22:05;99913.28;;;7.99;100.00
79752;BME280;69234;47.446;21.636;2024-02-26T00:22:36;99917.53;;;8.01;100.00
79752;BME280;69234;47.446;21.636;2024-02-26T00:23:07;99911.34;;;8.01;100.00
79752;BME280;69234;47.446;21.636;2024-02-26T00:23:38;99909.63;;;8.00;100.00
79752;BME280;69234;47.446;21.636;2024-02-26T00:24:09;99911.94;;;8.04;100.00
79752;BME280;69234;47.446;21.636;2024-02-26T00:24:40;99913.78;;;8.04;100.00
79752;BME280;69234;47.446;21.636;2024-02-26T00:25:12;99910.13;;;8.05;100.00
79752;BME280;69234;47.446;21.636;2024-02-26T00:25:43;99912.78;;;8.05;100.00
79752;BME280;69234;47.446;21.636;2024-02-26T00:26:14;99917.88;;;8.08;100.00
79752;BME280;69234;47.446;21.636;2024-02-26T00:26:46;99912.53;;;8.08;100.00
79752;BME280;69234;47.446;21.636;2024-02-26T00:27:16;99915.91;;;8.10;100.00
79752;BME280;69234;47.446;21.636;2024-02-26T00:27:47;99908.03;;;8.08;100.00
79752;BME280;69234;47.446;21.636;2024-02-26T00:28:18;99913.13;;;8.12;100.00
79752;BME280;69234;47.446;21.636;2024-02-26T00:28:50;99917.38;;;8.14;100.00
79752;BME280;69234;47.446;21.636;2024-02-26T00:29:21;99918.81;;;8.18;100.00
79752;BME280;69234;47.446;21.636;2024-02-26T00:29:52;99911.91;;;8.16;100.00
79752;BME280;69234;47.446;21.636;2024-02-26T00:30:23;99924.78;;;8.22;100.00
79752;BME280;69234;47.446;21.636;2024-02-26T00:30:54;99916.84;;;8.20;100.00
79752;BME280;69234;47.446;21.636;2024-02-26T00:31:26;99915.66;;;8.24;100.00
79752;BME280;69234;47.446;21.636;2024-02-26T00:31:57;99920.00;;;8.25;100.00
79752;BME280;69234;47.446;21.636;2024-02-26T00:32:29;99922.56;;;8.27;100.00
79752;BME280;69234;47.446;21.636;2024-02-26T00:33:00;99914.53;;;8.27;100.00
79752;BME280;69234;47.446;21.636;2024-02-26T00:33:31;99912.69;;;8.27;100.00
79752;BME280;69234;47.446;21.636;2024-02-26T00:34:04;99912.59;;;8.29;100.00
79752;BME280;69234;47.446;21.636;2024-02-26T00:34:35;99903.72;;;8.28;100.00
79752;BME280;69234;47.446;21.636;2024-02-26T00:35:07;99913.19;;;8.32;100.00
79752;BME280;69234;47.446;21.636;2024-02-26T00:35:37;99909.50;;;8.33;100.00
79752;BME280;69234;47.446;21.636;2024-02-26T00:36:08;99913.66;;;8.38;100.00
79752;BME280;69234;47.446;21.636;2024-02-26T00:36:39;99912.78;;;8.37;100.00
79752;BME280;69234;47.446;21.636;2024-02-26T00:37:10;99911.72;;;8.40;100.00
79752;BME280;69234;47.446;21.636;2024-02-26T00:37:41;99907.09;;;8.42;100.00
79752;BME280;69234;47.446;21.636;2024-02-26T00:38:14;99911.72;;;8.40;100.00
79752;BME280;69234;47.446;21.636;2024-02-26T00:38:44;99900.16;;;8.39;100.00
79752;BME280;69234;47.446;21.636;2024-02-26T00:39:21;99910.63;;;8.42;100.00
79752;BME280;69234;47.446;21.636;2024-02-26T00:39:52;99915.13;;;8.42;100.00
79752;BME280;69234;47.446;21.636;2024-02-26T00:40:24;99910.88;;;8.39;100.00
79752;BME280;69234;47.446;21.636;2024-02-26T00:40:55;99911.72;;;8.40;100.00
79752;BME280;69234;47.446;21.636;2024-02-26T00:41:26;99908.06;;;8.41;100.00
79752;BME280;69234;47.446;21.636;2024-02-26T00:41:57;99903.53;;;8.41;100.00
79752;BME280;69234;47.446;21.636;2024-02-26T00:42:28;99917.06;;;8.40;100.00
79752;BME280;69234;47.446;21.636;2024-02-26T00:42:59;99917.06;;;8.40;100.00
79752;BME280;69234;47.446;21.636;2024-02-26T00:43:30;99908.31;;;8.38;100.00
79752;BME280;69234;47.446;21.636;2024-02-26T00:44:01;99906.72;;;8.35;100.00
79752;BME280;69234;47.446;21.636;2024-02-26T00:44:32;99909.41;;;8.35;100.00
79752;BME280;69234;47.446;21.636;2024-02-26T00:45:03;99918.13;;;8.37;100.00
79752;BME280;69234;47.446;21.636;2024-02-26T00:45:34;99910.25;;;8.36;100.00
79752;BME280;69234;47.446;21.636;2024-02-26T00:46:05;99919.00;;;8.38;100.00
79752;BME280;69234;47.446;21.636;2024-02-26T00:46:36;99918.13;;;8.37;100.00
79752;BME280;69234;47.446;21.636;2024-02-26T00:47:07;99913.53;;;8.39;100.00
79752;BME280;69234;47.446;21.636;2024-02-26T00:47:38;99918.75;;;8.41;100.00
79752;BME280;69234;47.446;21.636;2024-02-26T00:48:11;99910.09;;;8.37;100.00
79752;BME280;69234;47.446;21.636;2024-02-26T00:48:44;99916.34;;;8.38;100.00
79752;BME280;69234;47.446;21.636;2024-02-26T00:49:16;99914.75;;;8.35;100.00
79752;BME280;69234;47.446;21.636;2024-02-26T00:49:47;99914.63;;;8.37;100.00
79752;BME280;69234;47.446;21.636;2024-02-26T00:50:18;99912.78;;;8.37;100.00
79752;BME280;69234;47.446;21.636;2024-02-26T00:50:49;99910.97;;;8.38;100.00
79752;BME280;69234;47.446;21.636;2024-02-26T00:51:19;99902.94;;;8.38;100.00
79752;BME280;69234;47.446;21.636;2024-02-26T00:51:50;99912.19;;;8.33;100.00
79752;BME280;69234;47.446;21.636;2024-02-26T00:52:21;99918.28;;;8.36;100.00
79752;BME280;69234;47.446;21.636;2024-02-26T00:52:52;99910.50;;;8.32;100.00
79752;BME280;69234;47.446;21.636;2024-02-26T00:53:23;99913.03;;;8.34;100.00
79752;BME280;69234;47.446;21.636;2024-02-26T00:53:55;99910.25;;;8.36;100.00
79752;BME280;69234;47.446;21.636;2024-02-26T00:54:26;99905.84;;;8.34;100.00
79752;BME280;69234;47.446;21.636;2024-02-26T00:54:57;99906.59;;;8.37;100.00
79752;BME280;69234;47.446;21.636;2024-02-26T00:55:28;99906.59;;;8.37;100.00
79752;BME280;69234;47.446;21.636;2024-02-26T00:55:59;99898.69;;;8.35;100.00
79752;BME280;69234;47.446;21.636;2024-02-26T00:56:30;99912.78;;;8.37;100.00
79752;BME280;69234;47.446;21.636;2024-02-26T00:57:01;99909.41;;;8.35;100.00
79752;BME280;69234;47.446;21.636;2024-02-26T00:57:31;99898.09;;;8.31;100.00
79752;BME280;69234;47.446;21.636;2024-02-26T00:58:02;99904.91;;;8.36;100.00
79752;BME280;69234;47.446;21.636;2024-02-26T00:58:33;99897.81;;;8.34;100.00
79752;BME280;69234;47.446;21.636;2024-02-26T00:59:04;99911.09;;;8.36;100.00
79752;BME280;69234;47.446;21.636;2024-02-26T00:59:35;99911.09;;;8.36;100.00
79752;BME280;69234;47.446;21.636;2024-02-26T01:00:07;99907.69;;;8.34;100.00
79752;BME280;69234;47.446;21.636;2024-02-26T01:00:40;99905.84;;;8.34;100.00
79752;BME280;69234;47.446;21.636;2024-02-26T01:01:11;99908.53;;;8.34;100.00
79752;BME280;69234;47.446;21.636;2024-02-26T01:01:42;99910.25;;;8.36;100.00
79752;BME280;69234;47.446;21.636;2024-02-26T01:02:13;99903.16;;;8.34;100.00
79752;BME280;69234;47.446;21.636;2024-02-26T01:02:44;99910.25;;;8.36;100.00
79752;BME280;69234;47.446;21.636;2024-02-26T01:03:18;99911.19;;;8.34;100.00
79752;BME280;69234;47.446;21.636;2024-02-26T01:03:49;99902.06;;;8.37;100.00
79752;BME280;69234;47.446;21.636;2024-02-26T01:04:20;99890.66;;;8.35;100.00
79752;BME280;69234;47.446;21.636;2024-02-26T01:04:51;99901.22;;;8.37;100.00
79752;BME280;69234;47.446;21.636;2024-02-26T01:05:22;99895.16;;;8.34;100.00
79752;BME280;69234;47.446;21.636;2024-02-26T01:05:53;99895.28;;;8.33;100.00
79752;BME280;69234;47.446;21.636;2024-02-26T01:06:24;99895.53;;;8.30;100.00
79752;BME280;69234;47.446;21.636;2024-02-26T01:06:54;99895.53;;;8.30;100.00
79752;BME280;69234;47.446;21.636;2024-02-26T01:07:25;99895.69;;;8.28;100.00
79752;BME280;69234;47.446;21.636;2024-02-26T01:07:56;99896.78;;;8.26;100.00
79752;BME280;69234;47.446;21.636;2024-02-26T01:08:27;99889.59;;;8.26;100.00
79752;BME280;69234;47.446;21.636;2024-02-26T01:08:58;99892.28;;;8.26;100.00
79752;BME280;69234;47.446;21.636;2024-02-26T01:09:29;99890.84;;;8.22;100.00
79752;BME280;69234;47.446;21.636;2024-02-26T01:10:00;99888.75;;;8.26;100.00
79752;BME280;69234;47.446;21.636;2024-02-26T01:10:31;99893.13;;;8.27;100.00
79752;BME280;69234;47.446;21.636;2024-02-26T01:11:02;99889.84;;;8.23;100.00
79752;BME280;69234;47.446;21.636;2024-02-26T01:11:33;99897.75;;;8.25;100.00
79752;BME280;69234;47.446;21.636;2024-02-26T01:12:04;99891.81;;;8.21;100.00
79752;BME280;69234;47.446;21.636;2024-02-26T01:12:35;99898.88;;;8.22;100.00
79752;BME280;69234;47.446;21.636;2024-02-26T01:13:06;99895.44;;;8.20;100.00
79752;BME280;69234;47.446;21.636;2024-02-26T01:13:38;99902.53;;;8.21;100.00
79752;BME280;69234;47.446;21.636;2024-02-26T01:14:09;99883.31;;;8.16;100.00
79752;BME280;69234;47.446;21.636;2024-02-26T01:14:40;99893.75;;;8.19;100.00
79752;BME280;69234;47.446;21.636;2024-02-26T01:15:11;99896.19;;;8.22;100.00
79752;BME280;69234;47.446;21.636;2024-02-26T01:15:42;99899.84;;;8.21;100.00
79752;BME280;69234;47.446;21.636;2024-02-26T01:16:14;99893.75;;;8.19;100.00
79752;BME280;69234;47.446;21.636;2024-02-26T01:16:45;99900.81;;;8.20;100.00
79752;BME280;69234;47.446;21.636;2024-02-26T01:17:16;99893.75;;;8.19;100.00
79752;BME280;69234;47.446;21.636;2024-02-26T01:17:47;99895.44;;;8.20;100.00
79752;BME280;69234;47.446;21.636;2024-02-26T01:18:19;99891.09;;;8.19;100.00
79752;BME280;69234;47.446;21.636;2024-02-26T01:18:50;99892.91;;;8.19;100.00
79752;BME280;69234;47.446;21.636;2024-02-26T01:19:21;99889.66;;;8.15;100.00
79752;BME280;69234;47.446;21.636;2024-02-26T01:19:52;99894.00;;;8.16;100.00
79752;BME280;69234;47.446;21.636;2024-02-26T01:20:24;99895.09;;;8.14;100.00
79752;BME280;69234;47.446;21.636;2024-02-26T01:20:55;99893.81;;;8.08;100.00
79752;BME280;69234;47.446;21.636;2024-02-26T01:21:26;99894.66;;;8.08;100.00
79752;BME280;69234;47.446;21.636;2024-02-26T01:21:59;99894.78;;;8.07;100.00
79752;BME280;69234;47.446;21.636;2024-02-26T01:22:31;99891.97;;;8.08;100.00
79752;BME280;69234;47.446;21.636;2024-02-26T01:23:01;99891.38;;;8.05;100.00
79752;BME280;69234;47.446;21.636;2024-02-26T01:23:33;99892.22;;;8.05;100.00
79752;BME280;69234;47.446;21.636;2024-02-26T01:24:04;99897.59;;;8.05;100.00
79752;BME280;69234;47.446;21.636;2024-02-26T01:24:35;99884.84;;;7.98;100.00
79752;BME280;69234;47.446;21.636;2024-02-26T01:25:06;99886.53;;;7.99;100.00
79752;BME280;69234;47.446;21.636;2024-02-26T01:25:38;99886.78;;;7.96;100.00
79752;BME280;69234;47.446;21.636;2024-02-26T01:26:09;99884.97;;;7.96;100.00
79752;BME280;69234;47.446;21.636;2024-02-26T01:26:41;99883.41;;;7.94;100.00
79752;BME280;69234;47.446;21.636;2024-02-26T01:27:12;99887.28;;;7.90;100.00
79752;BME280;69234;47.446;21.636;2024-02-26T01:27:44;99891.78;;;7.89;100.00
79752;BME280;69234;47.446;21.636;2024-02-26T01:28:16;99892.63;;;7.90;100.00
79752;BME280;69234;47.446;21.636;2024-02-26T01:28:47;99888.50;;;7.85;100.00
79752;BME280;69234;47.446;21.636;2024-02-26T01:29:18;99886.97;;;7.83;100.00
79752;BME280;69234;47.446;21.636;2024-02-26T01:29:49;99891.44;;;7.82;100.00
79752;BME280;69234;47.446;21.636;2024-02-26T01:30:20;99890.00;;;7.78;100.00
79752;BME280;69234;47.446;21.636;2024-02-26T01:30:51;99888.31;;;7.77;100.00
79752;BME280;69234;47.446;21.636;2024-02-26T01:31:22;99892.66;;;7.78;100.00
79752;BME280;69234;47.446;21.636;2024-02-26T01:31:53;99890.00;;;7.78;100.00
79752;BME280;69234;47.446;21.636;2024-02-26T01:32:24;99889.28;;;7.76;100.00
79752;BME280;69234;47.446;21.636;2024-02-26T01:32:55;99885.75;;;7.76;100.00
79752;BME280;69234;47.446;21.636;2024-02-26T01:33:26;99877.25;;;7.71;100.00
79752;BME280;69234;47.446;21.636;2024-02-26T01:33:57;99884.44;;;7.70;100.00
79752;BME280;69234;47.446;21.636;2024-02-26T01:34:28;99888.19;;;7.68;100.00
79752;BME280;69234;47.446;21.636;2024-02-26T01:34:59;99881.41;;;7.63;100.00
79752;BME280;69234;47.446;21.636;2024-02-26T01:35:30;99883.22;;;7.63;100.00
79752;BME280;69234;47.446;21.636;2024-02-26T01:36:01;99889.56;;;7.62;100.00
79752;BME280;69234;47.446;21.636;2024-02-26T01:36:32;99885.16;;;7.61;100.00
79752;BME280;69234;47.446;21.636;2024-02-26T01:37:05;99880.91;;;7.58;100.00
79752;BME280;69234;47.446;21.636;2024-02-26T01:37:36;99883.47;;;7.60;100.00
79752;BME280;69234;47.446;21.636;2024-02-26T01:38:07;99882.97;;;7.55;100.00
79752;BME280;69234;47.446;21.636;2024-02-26T01:38:38;99884.09;;;7.52;100.00
79752;BME280;69234;47.446;21.636;2024-02-26T01:39:09;99871.97;;;7.48;100.00
79752;BME280;69234;47.446;21.636;2024-02-26T01:39:43;99879.09;;;7.48;100.00
79752;BME280;69234;47.446;21.636;2024-02-26T01:40:14;99877.41;;;7.47;100.00
79752;BME280;69234;47.446;21.636;2024-02-26T01:40:48;99882.75;;;7.47;100.00
79752;BME280;69234;47.446;21.636;2024-02-26T01:41:19;99877.41;;;7.47;100.00
79752;BME280;69234;47.446;21.636;2024-02-26T01:41:50;99883.84;;;7.44;100.00
79752;BME280;69234;47.446;21.636;2024-02-26T01:42:21;99882.28;;;7.42;100.00
79752;BME280;69234;47.446;21.636;2024-02-26T01:42:53;99875.13;;;7.42;100.00
79752;BME280;69234;47.446;21.636;2024-02-26T01:43:24;99886.75;;;7.41;100.00
79752;BME280;69234;47.446;21.636;2024-02-26T01:43:55;99885.91;;;7.41;100.00
79752;BME280;69234;47.446;21.636;2024-02-26T01:44:26;99879.13;;;7.36;100.00
79752;BME280;69234;47.446;21.636;2024-02-26T01:44:58;99884.38;;;7.38;100.00
79752;BME280;69234;47.446;21.636;2024-02-26T01:45:29;99886.16;;;7.37;100.00
79752;BME280;69234;47.446;21.636;2024-02-26T01:46:00;99891.88;;;7.33;100.00
79752;BME280;69234;47.446;21.636;2024-02-26T01:46:34;99887.53;;;7.32;100.00
79752;BME280;69234;47.446;21.636;2024-02-26T01:47:09;99884.84;;;7.32;100.00
79752;BME280;69234;47.446;21.636;2024-02-26T01:47:41;99881.44;;;7.30;100.00
79752;BME280;69234;47.446;21.636;2024-02-26T01:48:12;99875.38;;;7.28;100.00
79752;BME280;69234;47.446;21.636;2024-02-26T01:48:46;99875.63;;;7.25;100.00
79752;BME280;69234;47.446;21.636;2024-02-26T01:49:18;99884.25;;;7.28;100.00
79752;BME280;69234;47.446;21.636;2024-02-26T01:49:49;99876.72;;;7.22;100.00
79752;BME280;69234;47.446;21.636;2024-02-26T01:50:21;99882.78;;;7.24;100.00
79752;BME280;69234;47.446;21.636;2024-02-26T01:50:55;99886.41;;;7.23;100.00
79752;BME280;69234;47.446;21.636;2024-02-26T01:51:26;99879.25;;;7.24;100.00
79752;BME280;69234;47.446;21.636;2024-02-26T01:51:58;99883.75;;;7.23;100.00
79752;BME280;69234;47.446;21.636;2024-02-26T01:52:29;99875.00;;;7.21;100.00
79752;BME280;69234;47.446;21.636;2024-02-26T01:53:01;99873.28;;;7.20;100.00
79752;BME280;69234;47.446;21.636;2024-02-26T01:53:32;99884.72;;;7.22;100.00
79752;BME280;69234;47.446;21.636;2024-02-26T01:54:03;99881.31;;;7.20;100.00
79752;BME280;69234;47.446;21.636;2024-02-26T01:54:37;99883.97;;;7.20;100.00
79752;BME280;69234;47.446;21.636;2024-02-26T01:55:08;99879.63;;;7.19;100.00
79752;BME280;69234;47.446;21.636;2024-02-26T01:55:40;99870.91;;;7.17;100.00
79752;BME280;69234;47.446;21.636;2024-02-26T01:56:12;99875.25;;;7.18;100.00
79752;BME280;69234;47.446;21.636;2024-02-26T01:56:45;99878.91;;;7.17;100.00
79752;BME280;69234;47.446;21.636;2024-02-26T01:57:16;99880.84;;;7.15;100.00
79752;BME280;69234;47.446;21.636;2024-02-26T01:57:49;99876.47;;;7.14;100.00
79752;BME280;69234;47.446;21.636;2024-02-26T01:58:23;99872.09;;;7.13;100.00
79752;BME280;69234;47.446;21.636;2024-02-26T01:58:54;99877.66;;;7.10;100.00
79752;BME280;69234;47.446;21.636;2024-02-26T01:59:26;99878.53;;;7.10;100.00
79752;BME280;69234;47.446;21.636;2024-02-26T01:59:57;99870.78;;;7.07;100.00
79752;BME280;69234;47.446;21.636;2024-02-26T02:00:28;99874.53;;;7.05;100.00
79752;BME280;69234;47.446;21.636;2024-02-26T02:00:59;99874.53;;;7.05;100.00
79752;BME280;69234;47.446;21.636;2024-02-26T02:01:33;99869.66;;;6.99;100.00
79752;BME280;69234;47.446;21.636;2024-02-26T02:02:09;99875.75;;;7.01;100.00
79752;BME280;69234;47.446;21.636;2024-02-26T02:02:41;99877.66;;;6.99;100.00
79752;BME280;69234;47.446;21.636;2024-02-26T02:03:12;99880.34;;;6.99;100.00
79752;BME280;69234;47.446;21.636;2024-02-26T02:03:43;99879.72;;;6.95;100.00
79752;BME280;69234;47.446;21.636;2024-02-26T02:04:16;99873.78;;;6.91;100.00
79752;BME280;69234;47.446;21.636;2024-02-26T02:04:47;99878.03;;;6.94;100.00
79752;BME280;69234;47.446;21.636;2024-02-26T02:05:20;99877.44;;;6.90;100.00
79752;BME280;69234;47.446;21.636;2024-02-26T02:05:52;99881.78;;;6.91;100.00
79752;BME280;69234;47.446;21.636;2024-02-26T02:06:23;99875.59;;;6.91;100.00
79752;BME280;69234;47.446;21.636;2024-02-26T02:06:54;99881.06;;;6.89;100.00
79752;BME280;69234;47.446;21.636;2024-02-26T02:07:26;99875.97;;;6.86;100.00
79752;BME280;69234;47.446;21.636;2024-02-26T02:07:58;99883.25;;;6.84;100.00
79752;BME280;69234;47.446;21.636;2024-02-26T02:08:29;99874.50;;;6.82;100.00
79752;BME280;69234;47.446;21.636;2024-02-26T02:09:01;99882.38;;;6.84;100.00
79752;BME280;69234;47.446;21.636;2024-02-26T02:09:36;99876.44;;;6.80;100.00
79752;BME280;69234;47.446;21.636;2024-02-26T02:10:08;99877.19;;;6.82;100.00
79752;BME280;69234;47.446;21.636;2024-02-26T02:10:42;99888.81;;;6.81;100.00
79752;BME280;69234;47.446;21.636;2024-02-26T02:11:13;99885.53;;;6.78;100.00
79752;BME280;69234;47.446;21.636;2024-02-26T02:11:47;99887.34;;;6.77;100.00
79752;BME280;69234;47.446;21.636;2024-02-26T02:12:19;99885.66;;;6.76;100.00
79752;BME280;69234;47.446;21.636;2024-02-26T02:12:50;99893.66;;;6.76;100.00
79752;BME280;69234;47.446;21.636;2024-02-26T02:13:21;99887.81;;;6.71;100.00
79752;BME280;69234;47.446;21.636;2024-02-26T02:13:52;99894.88;;;6.72;100.00
79752;BME280;69234;47.446;21.636;2024-02-26T02:14:23;99890.50;;;6.71;100.00
79752;BME280;69234;47.446;21.636;2024-02-26T02:14:54;99893.38;;;6.68;100.00
79752;BME280;69234;47.446;21.636;2024-02-26T02:15:25;99894.38;;;6.67;100.00
79752;BME280;69234;47.446;21.636;2024-02-26T02:15:56;99899.84;;;6.65;100.00
79752;BME280;69234;47.446;21.636;2024-02-26T02:16:27;99897.25;;;6.64;100.00
79752;BME280;69234;47.446;21.636;2024-02-26T02:16:59;99895.44;;;6.64;100.00
79752;BME280;69234;47.446;21.636;2024-02-26T02:17:31;99892.16;;;6.61;100.00
79752;BME280;69234;47.446;21.636;2024-02-26T02:18:02;99885.13;;;6.60;100.00
79752;BME280;69234;47.446;21.636;2024-02-26T02:18:33;99893.88;;;6.62;100.00
79752;BME280;69234;47.446;21.636;2024-02-26T02:19:04;99893.00;;;6.61;100.00
79752;BME280;69234;47.446;21.636;2024-02-26T02:19:35;99891.09;;;6.63;100.00
79752;BME280;69234;47.446;21.636;2024-02-26T02:20:32;99898.25;;;6.63;100.00
79752;BME280;69234;47.446;21.636;2024-02-26T02:21:04;99891.31;;;6.60;100.00
79752;BME280;69234;47.446;21.636;2024-02-26T02:21:35;99895.56;;;6.63;100.00
79752;BME280;69234;47.446;21.636;2024-02-26T02:22:06;99891.94;;;6.64;100.00
79752;BME280;69234;47.446;21.636;2024-02-26T02:22:37;99884.28;;;6.59;100.00
79752;BME280;69234;47.446;21.636;2024-02-26T02:23:09;99885.13;;;6.60;100.00
79752;BME280;69234;47.446;21.636;2024-02-26T02:23:40;99885.13;;;6.60;100.00
79752;BME280;69234;47.446;21.636;2024-02-26T02:24:13;99884.06;;;6.62;100.00
79752;BME280;69234;47.446;21.636;2024-02-26T02:24:49;99883.81;;;6.65;100.00
79752;BME280;69234;47.446;21.636;2024-02-26T02:25:20;99885.63;;;6.65;100.00
79752;BME280;69234;47.446;21.636;2024-02-26T02:25:51;99881.50;;;6.61;100.00
79752;BME280;69234;47.446;21.636;2024-02-26T02:26:23;99881.25;;;6.64;100.00
79752;BME280;69234;47.446;21.636;2024-02-26T02:26:54;99882.84;;;6.66;100.00
79752;BME280;69234;47.446;21.636;2024-02-26T02:27:27;99885.38;;;6.68;100.00
79752;BME280;69234;47.446;21.636;2024-02-26T02:27:59;99882.72;;;6.68;100.00
79752;BME280;69234;47.446;21.636;2024-02-26T02:28:30;99880.78;;;6.70;100.00
79752;BME280;69234;47.446;21.636;2024-02-26T02:29:02;99886.13;;;6.70;100.00
79752;BME280;69234;47.446;21.636;2024-02-26T02:29:33;99880.78;;;6.70;100.00
79752;BME280;69234;47.446;21.636;2024-02-26T02:30:05;99878.88;;;6.72;100.00
79752;BME280;69234;47.446;21.636;2024-02-26T02:30:39;99876.91;;;6.74;100.00
79752;BME280;69234;47.446;21.636;2024-02-26T02:31:11;99883.94;;;6.75;100.00
79752;BME280;69234;47.446;21.636;2024-02-26T02:31:42;99882.25;;;6.74;100.00
79752;BME280;69234;47.446;21.636;2024-02-26T02:32:15;99882.25;;;6.74;100.00
79752;BME280;69234;47.446;21.636;2024-02-26T02:32:46;99880.31;;;6.76;100.00
79752;BME280;69234;47.446;21.636;2024-02-26T02:33:17;99878.50;;;6.77;100.00
79752;BME280;69234;47.446;21.636;2024-02-26T02:33:48;99879.34;;;6.77;100.00
79752;BME280;69234;47.446;21.636;2024-02-26T02:34:21;99868.81;;;6.76;100.00
79752;BME280;69234;47.446;21.636;2024-02-26T02:34:52;99870.50;;;6.77;100.00
79752;BME280;69234;47.446;21.636;2024-02-26T02:35:23;99876.53;;;6.79;100.00
79752;BME280;69234;47.446;21.636;2024-02-26T02:35:54;99875.47;;;6.81;100.00
79752;BME280;69234;47.446;21.636;2024-02-26T02:36:25;99878.97;;;6.82;100.00
79752;BME280;69234;47.446;21.636;2024-02-26T02:36:56;99883.72;;;6.78;100.00
79752;BME280;69234;47.446;21.636;2024-02-26T02:37:27;99887.97;;;6.81;100.00
79752;BME280;69234;47.446;21.636;2024-02-26T02:37:58;99867.06;;;6.75;100.00
79752;BME280;69234;47.446;21.636;2024-02-26T02:38:29;99881.66;;;6.82;100.00
79752;BME280;69234;47.446;21.636;2024-02-26T02:39:01;99875.59;;;6.80;100.00
79752;BME280;69234;47.446;21.636;2024-02-26T02:39:32;99873.88;;;6.79;100.00
79752;BME280;69234;47.446;21.636;2024-02-26T02:40:03;99868.66;;;6.77;100.00
79752;BME280;69234;47.446;21.636;2024-02-26T02:40:35;99876.53;;;6.79;100.00
79752;BME280;69234;47.446;21.636;2024-02-26T02:41:05;99866.84;;;6.78;100.00
79752;BME280;69234;47.446;21.636;2024-02-26T02:41:37;99883.72;;;6.78;100.00
79752;BME280;69234;47.446;21.636;2024-02-26T02:42:07;99874.97;;;6.76;100.00
79752;BME280;69234;47.446;21.636;2024-02-26T02:42:39;99875.22;;;6.73;100.00
79752;BME280;69234;47.446;21.636;2024-02-26T02:43:10;99875.22;;;6.73;100.00
79752;BME280;69234;47.446;21.636;2024-02-26T02:43:41;99876.91;;;6.74;100.00
79752;BME280;69234;47.446;21.636;2024-02-26T02:44:12;99874.25;;;6.74;100.00
79752;BME280;69234;47.446;21.636;2024-02-26T02:44:43;99871.34;;;6.77;100.00